Airfield :
LOGIN :

Register | Disclaimer

   EN    FR    IT 

 










Legend :    VFR   Marginal VFR   IFR   Intensive IFR   Very Intensive IFR
Visi :
Ceiling :
>= 8 km
>= 3000ft
5 to 8 km
1000 to 3000 ft
1500m to 5 km
500 to 1000 ft
800 to 1500m
200 to 500 ft
< 800m
< 200 ft
Symbols :   Thunderstorms  Fog  Heavy snow  Heavy precipitations  Wind > 20 kt
SIGMETs :     Misc.  Thunderstorms  Icing  Turbulence  Mountain Waves  Volcanic Ashes






- Airport Elevation : 53 ft
- IATA code : HAM


EDDH - Hamburg

CURRENT METAR :
  • 282150Z AUTO 12007KT CAVOK 12/10 Q1014 NOSIG

EXPIRED METARs :
  • 282120Z AUTO 11008KT CAVOK 12/10 Q1015 NOSIG
  • 282050Z AUTO 10006KT CAVOK 12/10 Q1015 NOSIG
  • 282020Z AUTO 13004KT 100V190 CAVOK 13/10 Q1015 NOSIG
  • 281950Z AUTO 10005KT CAVOK 13/11 Q1015 NOSIG
  • 281920Z AUTO 10005KT CAVOK 14/11 Q1015 NOSIG
  • 281850Z AUTO 10004KT 070V150 CAVOK 14/11 Q1015 NOSIG
  • 281820Z AUTO 08004KT CAVOK 14/12 Q1015 NOSIG
  • 281750Z AUTO 07003KT 9999 FEW047 13/12 Q1015 NOSIG
  • 281720Z AUTO VRB02KT 9999 FEW039 SCT045 15/11 Q1015

TAF TAF EDDH
Valid from the 28 at 18:00 until the 30 at 00:00 UTC


281700Z 2818/2924 15004KT 9999 SCT040
BECMG 2901/2903 15010KT
TEMPO 2903/2911 4000 RA BKN012
PROB30
TEMPO 2903/2908 2500 SHRA BKN007CB
BECMG 2911/2914 21010KT
TEMPO 2911/2920 SHRA BKN015CB
PROB30
TEMPO 2912/2918 21015G25KT 4000 TSRA



MET'MAP, your aeronautical weather chart ! - Copyright ORBIFLY December 2007 - Disclaimer

ORBIFLY MET'MAP TEAM :

Programming & Development : Alexandra Zaïnal
Original concept : Baudouin d'Aumeries
Technical & hardware support : Manuel Goepfert
Assistance : Marc-Olivier Méhu




SOURCES & CREDITS :

   NOAA